sensor_id;sensor_type;location;lat;lon;timestamp;P1;durP1;ratioP1;P2;durP2;ratioP2
5585;SDS011;2815;54.094;12.112;2022-11-20T00:00:43;1.38;;;1.00;;
5585;SDS011;2815;54.094;12.112;2022-11-20T00:03:12;1.75;;;1.25;;
5585;SDS011;2815;54.094;12.112;2022-11-20T00:05:41;2.03;;;1.08;;
5585;SDS011;2815;54.094;12.112;2022-11-20T00:08:10;1.42;;;1.05;;
5585;SDS011;2815;54.094;12.112;2022-11-20T00:10:38;2.67;;;1.20;;
5585;SDS011;2815;54.094;12.112;2022-11-20T00:13:06;5.13;;;1.10;;
5585;SDS011;2815;54.094;12.112;2022-11-20T00:15:34;1.00;;;0.90;;
5585;SDS011;2815;54.094;12.112;2022-11-20T00:18:02;1.60;;;0.80;;
5585;SDS011;2815;54.094;12.112;2022-11-20T00:20:30;1.15;;;1.00;;
5585;SDS011;2815;54.094;12.112;2022-11-20T00:22:59;0.93;;;0.75;;
5585;SDS011;2815;54.094;12.112;2022-11-20T00:25:27;1.75;;;1.15;;
5585;SDS011;2815;54.094;12.112;2022-11-20T00:27:55;2.22;;;1.20;;
5585;SDS011;2815;54.094;12.112;2022-11-20T00:30:23;1.92;;;1.20;;
5585;SDS011;2815;54.094;12.112;2022-11-20T00:32:51;1.73;;;0.88;;
5585;SDS011;2815;54.094;12.112;2022-11-20T00:35:19;1.63;;;1.20;;
5585;SDS011;2815;54.094;12.112;2022-11-20T00:37:46;2.00;;;0.90;;
5585;SDS011;2815;54.094;12.112;2022-11-20T00:40:16;1.48;;;1.05;;
5585;SDS011;2815;54.094;12.112;2022-11-20T00:42:44;1.10;;;0.90;;
5585;SDS011;2815;54.094;12.112;2022-11-20T00:45:12;0.88;;;0.77;;
5585;SDS011;2815;54.094;12.112;2022-11-20T00:47:39;1.67;;;0.98;;
5585;SDS011;2815;54.094;12.112;2022-11-20T00:50:08;1.02;;;0.93;;
5585;SDS011;2815;54.094;12.112;2022-11-20T00:52:36;1.88;;;0.90;;
5585;SDS011;2815;54.094;12.112;2022-11-20T00:55:04;1.20;;;1.10;;
5585;SDS011;2815;54.094;12.112;2022-11-20T00:57:34;1.70;;;1.00;;
5585;SDS011;2815;54.094;12.112;2022-11-20T01:00:02;1.33;;;1.05;;
5585;SDS011;2815;54.094;12.112;2022-11-20T01:02:31;1.90;;;1.33;;
5585;SDS011;2815;54.094;12.112;2022-11-20T01:04:59;1.92;;;1.00;;
5585;SDS011;2815;54.094;12.112;2022-11-20T01:07:27;1.67;;;1.20;;
5585;SDS011;2815;54.094;12.112;2022-11-20T01:09:55;1.60;;;1.30;;
5585;SDS011;2815;54.094;12.112;2022-11-20T01:12:22;2.30;;;1.55;;
5585;SDS011;2815;54.094;12.112;2022-11-20T01:14:52;2.40;;;1.52;;
5585;SDS011;2815;54.094;12.112;2022-11-20T01:17:19;1.88;;;1.30;;
5585;SDS011;2815;54.094;12.112;2022-11-20T01:19:48;1.38;;;1.27;;
5585;SDS011;2815;54.094;12.112;2022-11-20T01:22:16;1.60;;;1.20;;
5585;SDS011;2815;54.094;12.112;2022-11-20T01:24:44;0.95;;;0.90;;
5585;SDS011;2815;54.094;12.112;2022-11-20T01:27:12;1.33;;;1.05;;
5585;SDS011;2815;54.094;12.112;2022-11-20T01:29:40;2.10;;;1.30;;
5585;SDS011;2815;54.094;12.112;2022-11-20T01:32:09;2.20;;;1.30;;
5585;SDS011;2815;54.094;12.112;2022-11-20T01:34:37;1.42;;;1.30;;
5585;SDS011;2815;54.094;12.112;2022-11-20T01:37:04;0.95;;;0.88;;
5585;SDS011;2815;54.094;12.112;2022-11-20T01:39:33;2.00;;;1.30;;
5585;SDS011;2815;54.094;12.112;2022-11-20T01:42:01;1.40;;;1.10;;
5585;SDS011;2815;54.094;12.112;2022-11-20T01:44:51;1.45;;;1.35;;
5585;SDS011;2815;54.094;12.112;2022-11-20T01:47:24;2.45;;;1.60;;
5585;SDS011;2815;54.094;12.112;2022-11-20T01:49:56;3.25;;;1.40;;
5585;SDS011;2815;54.094;12.112;2022-11-20T01:52:28;1.50;;;1.30;;
5585;SDS011;2815;54.094;12.112;2022-11-20T01:54:59;1.23;;;1.10;;
5585;SDS011;2815;54.094;12.112;2022-11-20T01:57:29;3.47;;;1.60;;
5585;SDS011;2815;54.094;12.112;2022-11-20T01:59:59;2.05;;;1.30;;
5585;SDS011;2815;54.094;12.112;2022-11-20T02:02:39;1.80;;;1.23;;
5585;SDS011;2815;54.094;12.112;2022-11-20T02:05:11;2.55;;;1.50;;
5585;SDS011;2815;54.094;12.112;2022-11-20T02:07:42;1.40;;;1.10;;
5585;SDS011;2815;54.094;12.112;2022-11-20T02:10:11;1.30;;;1.20;;
5585;SDS011;2815;54.094;12.112;2022-11-20T02:12:57;3.10;;;1.40;;
5585;SDS011;2815;54.094;12.112;2022-11-20T02:15:43;2.63;;;1.30;;
5585;SDS011;2815;54.094;12.112;2022-11-20T02:18:20;1.48;;;1.13;;
5585;SDS011;2815;54.094;12.112;2022-11-20T02:20:49;1.70;;;1.30;;
5585;SDS011;2815;54.094;12.112;2022-11-20T02:23:21;2.70;;;1.48;;
5585;SDS011;2815;54.094;12.112;2022-11-20T02:25:54;1.77;;;1.20;;
5585;SDS011;2815;54.094;12.112;2022-11-20T02:28:22;1.95;;;1.40;;
5585;SDS011;2815;54.094;12.112;2022-11-20T02:30:50;2.22;;;1.52;;
5585;SDS011;2815;54.094;12.112;2022-11-20T02:33:18;1.92;;;1.35;;
5585;SDS011;2815;54.094;12.112;2022-11-20T02:35:46;2.35;;;1.90;;
5585;SDS011;2815;54.094;12.112;2022-11-20T02:38:14;1.92;;;1.60;;
5585;SDS011;2815;54.094;12.112;2022-11-20T02:40:42;3.15;;;2.00;;
5585;SDS011;2815;54.094;12.112;2022-11-20T02:43:12;3.15;;;1.80;;
5585;SDS011;2815;54.094;12.112;2022-11-20T02:45:40;2.35;;;1.70;;
5585;SDS011;2815;54.094;12.112;2022-11-20T02:48:07;1.88;;;1.45;;
5585;SDS011;2815;54.094;12.112;2022-11-20T02:50:38;3.10;;;1.75;;
5585;SDS011;2815;54.094;12.112;2022-11-20T02:53:07;2.88;;;2.00;;
5585;SDS011;2815;54.094;12.112;2022-11-20T02:55:35;3.22;;;1.92;;
5585;SDS011;2815;54.094;12.112;2022-11-20T02:58:03;2.42;;;1.80;;
5585;SDS011;2815;54.094;12.112;2022-11-20T03:00:32;4.25;;;2.38;;
5585;SDS011;2815;54.094;12.112;2022-11-20T03:03:00;2.40;;;1.90;;
5585;SDS011;2815;54.094;12.112;2022-11-20T03:05:28;2.78;;;2.22;;
5585;SDS011;2815;54.094;12.112;2022-11-20T03:07:55;3.10;;;1.85;;
5585;SDS011;2815;54.094;12.112;2022-11-20T03:10:23;2.63;;;1.88;;
5585;SDS011;2815;54.094;12.112;2022-11-20T03:12:52;2.40;;;1.85;;
5585;SDS011;2815;54.094;12.112;2022-11-20T03:15:21;2.47;;;1.60;;
5585;SDS011;2815;54.094;12.112;2022-11-20T03:17:52;1.95;;;1.60;;
5585;SDS011;2815;54.094;12.112;2022-11-20T03:20:21;2.42;;;1.80;;
5585;SDS011;2815;54.094;12.112;2022-11-20T03:22:48;2.33;;;1.80;;
5585;SDS011;2815;54.094;12.112;2022-11-20T03:25:16;2.20;;;1.80;;
5585;SDS011;2815;54.094;12.112;2022-11-20T03:27:44;3.28;;;1.77;;
5585;SDS011;2815;54.094;12.112;2022-11-20T03:30:13;3.42;;;1.92;;
5585;SDS011;2815;54.094;12.112;2022-11-20T03:32:41;2.90;;;1.80;;
5585;SDS011;2815;54.094;12.112;2022-11-20T03:35:10;2.95;;;1.85;;
5585;SDS011;2815;54.094;12.112;2022-11-20T03:37:38;2.22;;;1.80;;
5585;SDS011;2815;54.094;12.112;2022-11-20T03:40:06;2.63;;;1.88;;
5585;SDS011;2815;54.094;12.112;2022-11-20T03:42:35;2.95;;;2.00;;
5585;SDS011;2815;54.094;12.112;2022-11-20T03:45:16;4.80;;;1.58;;
5585;SDS011;2815;54.094;12.112;2022-11-20T03:47:44;2.35;;;1.67;;
5585;SDS011;2815;54.094;12.112;2022-11-20T03:50:16;2.30;;;1.75;;
5585;SDS011;2815;54.094;12.112;2022-11-20T03:52:44;2.05;;;1.63;;
5585;SDS011;2815;54.094;12.112;2022-11-20T03:55:12;3.15;;;2.15;;
5585;SDS011;2815;54.094;12.112;2022-11-20T03:57:40;2.38;;;1.85;;
5585;SDS011;2815;54.094;12.112;2022-11-20T04:00:09;2.78;;;2.00;;
5585;SDS011;2815;54.094;12.112;2022-11-20T04:02:37;1.90;;;1.60;;
5585;SDS011;2815;54.094;12.112;2022-11-20T04:05:05;2.58;;;1.80;;
5585;SDS011;2815;54.094;12.112;2022-11-20T04:07:35;3.00;;;1.63;;
5585;SDS011;2815;54.094;12.112;2022-11-20T04:10:03;2.22;;;1.88;;
5585;SDS011;2815;54.094;12.112;2022-11-20T04:12:32;2.53;;;1.63;;
5585;SDS011;2815;54.094;12.112;2022-11-20T04:15:00;2.45;;;1.60;;
5585;SDS011;2815;54.094;12.112;2022-11-20T04:17:28;2.80;;;1.67;;
5585;SDS011;2815;54.094;12.112;2022-11-20T04:19:56;2.65;;;1.70;;
5585;SDS011;2815;54.094;12.112;2022-11-20T04:22:24;1.83;;;1.67;;
5585;SDS011;2815;54.094;12.112;2022-11-20T04:24:53;2.08;;;1.63;;
5585;SDS011;2815;54.094;12.112;2022-11-20T04:27:21;1.83;;;1.17;;
5585;SDS011;2815;54.094;12.112;2022-11-20T04:29:49;2.45;;;1.45;;
5585;SDS011;2815;54.094;12.112;2022-11-20T04:32:17;5.15;;;1.85;;
5585;SDS011;2815;54.094;12.112;2022-11-20T04:34:45;2.15;;;1.80;;
5585;SDS011;2815;54.094;12.112;2022-11-20T04:37:13;1.98;;;1.35;;
5585;SDS011;2815;54.094;12.112;2022-11-20T04:39:40;1.60;;;1.30;;
5585;SDS011;2815;54.094;12.112;2022-11-20T04:42:10;2.60;;;1.48;;
5585;SDS011;2815;54.094;12.112;2022-11-20T04:44:56;1.83;;;1.48;;
5585;SDS011;2815;54.094;12.112;2022-11-20T04:47:24;2.40;;;1.75;;
5585;SDS011;2815;54.094;12.112;2022-11-20T04:49:52;2.08;;;1.40;;
5585;SDS011;2815;54.094;12.112;2022-11-20T04:52:20;2.33;;;1.70;;
5585;SDS011;2815;54.094;12.112;2022-11-20T04:54:48;1.10;;;1.00;;
5585;SDS011;2815;54.094;12.112;2022-11-20T04:57:20;2.22;;;1.55;;
5585;SDS011;2815;54.094;12.112;2022-11-20T04:59:48;1.90;;;1.45;;
5585;SDS011;2815;54.094;12.112;2022-11-20T05:02:16;3.30;;;2.25;;
5585;SDS011;2815;54.094;12.112;2022-11-20T05:04:44;2.70;;;1.88;;
5585;SDS011;2815;54.094;12.112;2022-11-20T05:07:11;2.08;;;1.45;;
5585;SDS011;2815;54.094;12.112;2022-11-20T05:09:39;2.00;;;1.50;;
5585;SDS011;2815;54.094;12.112;2022-11-20T05:12:07;3.42;;;2.40;;
5585;SDS011;2815;54.094;12.112;2022-11-20T05:14:37;4.35;;;2.60;;
5585;SDS011;2815;54.094;12.112;2022-11-20T05:17:05;6.90;;;2.72;;
5585;SDS011;2815;54.094;12.112;2022-11-20T05:19:33;4.45;;;3.10;;
5585;SDS011;2815;54.094;12.112;2022-11-20T05:22:00;3.20;;;2.30;;
5585;SDS011;2815;54.094;12.112;2022-11-20T05:24:28;4.07;;;2.80;;
5585;SDS011;2815;54.094;12.112;2022-11-20T05:26:56;4.45;;;2.78;;
5585;SDS011;2815;54.094;12.112;2022-11-20T05:29:24;7.97;;;3.05;;
5585;SDS011;2815;54.094;12.112;2022-11-20T05:31:53;6.07;;;2.83;;
5585;SDS011;2815;54.094;12.112;2022-11-20T05:34:21;6.70;;;2.80;;
5585;SDS011;2815;54.094;12.112;2022-11-20T05:36:49;5.50;;;2.83;;
5585;SDS011;2815;54.094;12.112;2022-11-20T05:39:17;3.67;;;1.85;;
5585;SDS011;2815;54.094;12.112;2022-11-20T05:41:45;5.60;;;2.70;;
5585;SDS011;2815;54.094;12.112;2022-11-20T05:44:33;6.00;;;3.13;;
5585;SDS011;2815;54.094;12.112;2022-11-20T05:47:02;5.07;;;2.60;;
5585;SDS011;2815;54.094;12.112;2022-11-20T05:49:31;7.47;;;3.25;;
5585;SDS011;2815;54.094;12.112;2022-11-20T05:51:59;4.18;;;2.45;;
5585;SDS011;2815;54.094;12.112;2022-11-20T05:54:27;5.60;;;3.13;;
5585;SDS011;2815;54.094;12.112;2022-11-20T05:56:54;5.13;;;2.80;;
5585;SDS011;2815;54.094;12.112;2022-11-20T05:59:22;5.82;;;3.00;;
5585;SDS011;2815;54.094;12.112;2022-11-20T06:01:50;3.83;;;2.42;;
5585;SDS011;2815;54.094;12.112;2022-11-20T06:04:19;4.40;;;2.55;;
5585;SDS011;2815;54.094;12.112;2022-11-20T06:06:47;4.30;;;2.45;;
5585;SDS011;2815;54.094;12.112;2022-11-20T06:09:15;6.00;;;2.58;;
5585;SDS011;2815;54.094;12.112;2022-11-20T06:11:43;4.95;;;2.75;;
5585;SDS011;2815;54.094;12.112;2022-11-20T06:14:11;3.83;;;2.10;;
5585;SDS011;2815;54.094;12.112;2022-11-20T06:16:39;6.32;;;2.60;;
5585;SDS011;2815;54.094;12.112;2022-11-20T06:19:07;4.32;;;2.45;;
5585;SDS011;2815;54.094;12.112;2022-11-20T06:21:36;3.53;;;2.28;;
5585;SDS011;2815;54.094;12.112;2022-11-20T06:24:04;4.63;;;2.33;;
5585;SDS011;2815;54.094;12.112;2022-11-20T06:26:33;6.15;;;2.85;;
5585;SDS011;2815;54.094;12.112;2022-11-20T06:29:01;3.55;;;2.42;;
5585;SDS011;2815;54.094;12.112;2022-11-20T06:31:29;3.65;;;2.38;;
5585;SDS011;2815;54.094;12.112;2022-11-20T06:33:59;3.33;;;2.30;;
5585;SDS011;2815;54.094;12.112;2022-11-20T06:36:27;5.40;;;2.72;;
5585;SDS011;2815;54.094;12.112;2022-11-20T06:38:56;4.50;;;2.58;;
5585;SDS011;2815;54.094;12.112;2022-11-20T06:41:24;4.13;;;2.40;;
5585;SDS011;2815;54.094;12.112;2022-11-20T06:43:52;5.03;;;2.70;;
5585;SDS011;2815;54.094;12.112;2022-11-20T06:46:20;5.10;;;3.00;;
5585;SDS011;2815;54.094;12.112;2022-11-20T06:48:49;4.28;;;2.70;;
5585;SDS011;2815;54.094;12.112;2022-11-20T06:51:17;5.38;;;2.60;;
5585;SDS011;2815;54.094;12.112;2022-11-20T06:53:45;4.45;;;2.92;;
5585;SDS011;2815;54.094;12.112;2022-11-20T06:56:14;5.75;;;2.85;;
5585;SDS011;2815;54.094;12.112;2022-11-20T06:58:42;4.15;;;2.58;;
5585;SDS011;2815;54.094;12.112;2022-11-20T07:01:10;5.05;;;3.05;;
5585;SDS011;2815;54.094;12.112;2022-11-20T07:03:40;5.97;;;2.80;;
5585;SDS011;2815;54.094;12.112;2022-11-20T07:06:08;4.25;;;2.88;;
5585;SDS011;2815;54.094;12.112;2022-11-20T07:08:37;3.97;;;2.90;;
5585;SDS011;2815;54.094;12.112;2022-11-20T07:11:06;6.50;;;2.90;;
5585;SDS011;2815;54.094;12.112;2022-11-20T07:13:35;3.95;;;2.72;;
5585;SDS011;2815;54.094;12.112;2022-11-20T07:16:04;5.43;;;2.97;;
5585;SDS011;2815;54.094;12.112;2022-11-20T07:18:33;5.65;;;3.05;;
5585;SDS011;2815;54.094;12.112;2022-11-20T07:21:01;4.82;;;2.90;;
5585;SDS011;2815;54.094;12.112;2022-11-20T07:23:30;4.45;;;2.70;;
5585;SDS011;2815;54.094;12.112;2022-11-20T07:25:57;4.40;;;2.63;;
5585;SDS011;2815;54.094;12.112;2022-11-20T07:28:26;5.93;;;2.78;;
5585;SDS011;2815;54.094;12.112;2022-11-20T07:30:55;4.93;;;2.70;;
5585;SDS011;2815;54.094;12.112;2022-11-20T07:33:23;5.32;;;2.72;;
5585;SDS011;2815;54.094;12.112;2022-11-20T07:35:51;4.72;;;3.10;;
5585;SDS011;2815;54.094;12.112;2022-11-20T07:38:19;6.25;;;3.10;;
5585;SDS011;2815;54.094;12.112;2022-11-20T07:40:47;3.28;;;2.33;;
5585;SDS011;2815;54.094;12.112;2022-11-20T07:43:15;4.82;;;2.72;;
5585;SDS011;2815;54.094;12.112;2022-11-20T07:45:43;5.05;;;2.72;;
5585;SDS011;2815;54.094;12.112;2022-11-20T07:48:12;3.85;;;2.25;;
5585;SDS011;2815;54.094;12.112;2022-11-20T07:50:40;6.80;;;3.28;;
5585;SDS011;2815;54.094;12.112;2022-11-20T07:53:08;6.88;;;3.00;;
5585;SDS011;2815;54.094;12.112;2022-11-20T07:55:36;4.72;;;2.75;;
5585;SDS011;2815;54.094;12.112;2022-11-20T07:58:04;4.57;;;2.83;;
5585;SDS011;2815;54.094;12.112;2022-11-20T08:00:32;6.55;;;3.15;;
5585;SDS011;2815;54.094;12.112;2022-11-20T08:03:02;4.88;;;2.88;;
5585;SDS011;2815;54.094;12.112;2022-11-20T08:05:32;4.00;;;2.35;;
5585;SDS011;2815;54.094;12.112;2022-11-20T08:08:00;5.10;;;2.72;;
5585;SDS011;2815;54.094;12.112;2022-11-20T08:10:28;5.57;;;3.20;;
5585;SDS011;2815;54.094;12.112;2022-11-20T08:12:56;6.30;;;3.10;;
5585;SDS011;2815;54.094;12.112;2022-11-20T08:15:47;3.63;;;2.25;;
5585;SDS011;2815;54.094;12.112;2022-11-20T08:18:15;4.75;;;2.10;;
5585;SDS011;2815;54.094;12.112;2022-11-20T08:21:02;5.07;;;2.75;;
5585;SDS011;2815;54.094;12.112;2022-11-20T08:23:31;5.47;;;2.80;;
5585;SDS011;2815;54.094;12.112;2022-11-20T08:26:00;4.82;;;2.90;;
5585;SDS011;2815;54.094;12.112;2022-11-20T08:28:28;3.55;;;2.42;;
5585;SDS011;2815;54.094;12.112;2022-11-20T08:30:57;5.50;;;2.80;;
5585;SDS011;2815;54.094;12.112;2022-11-20T08:33:26;4.13;;;2.60;;
5585;SDS011;2815;54.094;12.112;2022-11-20T08:35:53;4.15;;;2.45;;
5585;SDS011;2815;54.094;12.112;2022-11-20T08:38:27;4.72;;;2.45;;
5585;SDS011;2815;54.094;12.112;2022-11-20T08:40:56;3.10;;;2.25;;
5585;SDS011;2815;54.094;12.112;2022-11-20T08:43:42;4.85;;;2.60;;
5585;SDS011;2815;54.094;12.112;2022-11-20T08:46:10;3.85;;;2.25;;
5585;SDS011;2815;54.094;12.112;2022-11-20T08:48:38;4.30;;;2.55;;
5585;SDS011;2815;54.094;12.112;2022-11-20T08:51:06;3.92;;;2.33;;
5585;SDS011;2815;54.094;12.112;2022-11-20T08:53:35;3.53;;;1.80;;
5585;SDS011;2815;54.094;12.112;2022-11-20T08:56:03;3.65;;;2.30;;
5585;SDS011;2815;54.094;12.112;2022-11-20T08:58:31;3.47;;;2.40;;
5585;SDS011;2815;54.094;12.112;2022-11-20T09:01:20;3.15;;;2.10;;
5585;SDS011;2815;54.094;12.112;2022-11-20T09:03:48;3.35;;;2.28;;
5585;SDS011;2815;54.094;12.112;2022-11-20T09:06:16;4.40;;;2.47;;
5585;SDS011;2815;54.094;12.112;2022-11-20T09:08:46;3.90;;;2.30;;
5585;SDS011;2815;54.094;12.112;2022-11-20T09:11:15;4.45;;;2.15;;
5585;SDS011;2815;54.094;12.112;2022-11-20T09:13:43;3.47;;;2.28;;
5585;SDS011;2815;54.094;12.112;2022-11-20T09:16:10;2.97;;;2.08;;
5585;SDS011;2815;54.094;12.112;2022-11-20T09:18:39;3.83;;;2.47;;
5585;SDS011;2815;54.094;12.112;2022-11-20T09:21:08;3.65;;;1.92;;
5585;SDS011;2815;54.094;12.112;2022-11-20T09:23:38;3.40;;;2.10;;
5585;SDS011;2815;54.094;12.112;2022-11-20T09:26:08;2.17;;;1.77;;
5585;SDS011;2815;54.094;12.112;2022-11-20T09:28:37;3.35;;;1.92;;
5585;SDS011;2815;54.094;12.112;2022-11-20T09:31:06;3.10;;;2.03;;
5585;SDS011;2815;54.094;12.112;2022-11-20T09:33:34;2.22;;;1.67;;
5585;SDS011;2815;54.094;12.112;2022-11-20T09:36:03;2.85;;;1.88;;
5585;SDS011;2815;54.094;12.112;2022-11-20T09:38:31;2.70;;;1.80;;
5585;SDS011;2815;54.094;12.112;2022-11-20T09:41:01;26.52;;;5.53;;
5585;SDS011;2815;54.094;12.112;2022-11-20T09:43:36;8.32;;;2.85;;
5585;SDS011;2815;54.094;12.112;2022-11-20T09:46:12;10.35;;;3.85;;
5585;SDS011;2815;54.094;12.112;2022-11-20T09:48:48;21.83;;;6.10;;
5585;SDS011;2815;54.094;12.112;2022-11-20T09:51:26;13.63;;;5.40;;
5585;SDS011;2815;54.094;12.112;2022-11-20T09:54:02;9.15;;;3.55;;
5585;SDS011;2815;54.094;12.112;2022-11-20T09:56:35;5.32;;;3.47;;
5585;SDS011;2815;54.094;12.112;2022-11-20T09:59:06;6.38;;;3.10;;
5585;SDS011;2815;54.094;12.112;2022-11-20T10:01:35;6.63;;;3.10;;
5585;SDS011;2815;54.094;12.112;2022-11-20T10:04:05;3.22;;;2.05;;
5585;SDS011;2815;54.094;12.112;2022-11-20T10:06:37;3.42;;;2.10;;
5585;SDS011;2815;54.094;12.112;2022-11-20T10:09:14;2.60;;;1.75;;
5585;SDS011;2815;54.094;12.112;2022-11-20T10:11:48;3.25;;;2.10;;
5585;SDS011;2815;54.094;12.112;2022-11-20T10:14:23;4.15;;;2.00;;
5585;SDS011;2815;54.094;12.112;2022-11-20T10:17:01;2.58;;;1.80;;
5585;SDS011;2815;54.094;12.112;2022-11-20T10:19:35;3.63;;;1.80;;
5585;SDS011;2815;54.094;12.112;2022-11-20T10:22:11;2.55;;;1.50;;
5585;SDS011;2815;54.094;12.112;2022-11-20T10:24:48;2.28;;;1.40;;
5585;SDS011;2815;54.094;12.112;2022-11-20T10:30:20;1.88;;;1.50;;
5585;SDS011;2815;54.094;12.112;2022-11-20T10:32:51;1.75;;;1.40;;
5585;SDS011;2815;54.094;12.112;2022-11-20T10:35:22;2.47;;;1.73;;
5585;SDS011;2815;54.094;12.112;2022-11-20T10:37:54;1.95;;;1.45;;
5585;SDS011;2815;54.094;12.112;2022-11-20T10:40:25;3.25;;;1.65;;
5585;SDS011;2815;54.094;12.112;2022-11-20T10:42:58;2.85;;;1.70;;
5585;SDS011;2815;54.094;12.112;2022-11-20T10:45:32;2.65;;;1.58;;
5585;SDS011;2815;54.094;12.112;2022-11-20T10:48:09;2.88;;;1.80;;
5585;SDS011;2815;54.094;12.112;2022-11-20T10:50:42;3.05;;;1.83;;
5585;SDS011;2815;54.094;12.112;2022-11-20T10:53:19;2.55;;;1.73;;
5585;SDS011;2815;54.094;12.112;2022-11-20T10:55:55;3.00;;;1.70;;
5585;SDS011;2815;54.094;12.112;2022-11-20T10:58:28;2.58;;;1.58;;
5585;SDS011;2815;54.094;12.112;2022-11-20T11:01:05;2.60;;;1.30;;
5585;SDS011;2815;54.094;12.112;2022-11-20T11:03:39;1.20;;;1.10;;
5585;SDS011;2815;54.094;12.112;2022-11-20T11:06:10;2.15;;;1.83;;
5585;SDS011;2815;54.094;12.112;2022-11-20T11:08:42;2.60;;;1.85;;
5585;SDS011;2815;54.094;12.112;2022-11-20T11:11:17;2.20;;;1.80;;
5585;SDS011;2815;54.094;12.112;2022-11-20T11:13:48;2.72;;;1.65;;
5585;SDS011;2815;54.094;12.112;2022-11-20T11:16:20;3.60;;;2.28;;
5585;SDS011;2815;54.094;12.112;2022-11-20T11:18:49;2.55;;;1.80;;
5585;SDS011;2815;54.094;12.112;2022-11-20T11:21:21;3.13;;;2.20;;
5585;SDS011;2815;54.094;12.112;2022-11-20T11:23:57;4.88;;;2.63;;
5585;SDS011;2815;54.094;12.112;2022-11-20T11:26:51;3.78;;;2.45;;
5585;SDS011;2815;54.094;12.112;2022-11-20T11:29:20;4.10;;;2.78;;
5585;SDS011;2815;54.094;12.112;2022-11-20T11:31:49;5.50;;;3.40;;
5585;SDS011;2815;54.094;12.112;2022-11-20T11:34:17;6.85;;;3.38;;
5585;SDS011;2815;54.094;12.112;2022-11-20T11:36:49;3.63;;;2.58;;
5585;SDS011;2815;54.094;12.112;2022-11-20T11:39:21;4.47;;;2.90;;
5585;SDS011;2815;54.094;12.112;2022-11-20T11:41:49;4.50;;;2.70;;
5585;SDS011;2815;54.094;12.112;2022-11-20T11:44:18;4.55;;;2.67;;
5585;SDS011;2815;54.094;12.112;2022-11-20T11:47:09;3.30;;;2.65;;
5585;SDS011;2815;54.094;12.112;2022-11-20T11:49:40;2.50;;;2.05;;
5585;SDS011;2815;54.094;12.112;2022-11-20T11:52:09;3.72;;;2.60;;
5585;SDS011;2815;54.094;12.112;2022-11-20T11:54:41;2.60;;;1.90;;
5585;SDS011;2815;54.094;12.112;2022-11-20T11:57:12;3.45;;;2.20;;
5585;SDS011;2815;54.094;12.112;2022-11-20T11:59:54;3.38;;;2.47;;
5585;SDS011;2815;54.094;12.112;2022-11-20T12:02:34;7.97;;;3.70;;
5585;SDS011;2815;54.094;12.112;2022-11-20T12:05:08;5.00;;;2.67;;
5585;SDS011;2815;54.094;12.112;2022-11-20T12:07:41;4.43;;;2.95;;
5585;SDS011;2815;54.094;12.112;2022-11-20T12:10:16;5.65;;;2.90;;
5585;SDS011;2815;54.094;12.112;2022-11-20T12:12:48;3.00;;;2.28;;
5585;SDS011;2815;54.094;12.112;2022-11-20T12:15:26;7.10;;;3.30;;
5585;SDS011;2815;54.094;12.112;2022-11-20T12:17:58;5.20;;;3.38;;
5585;SDS011;2815;54.094;12.112;2022-11-20T12:20:28;4.55;;;3.13;;
5585;SDS011;2815;54.094;12.112;2022-11-20T12:23:01;4.30;;;2.58;;
5585;SDS011;2815;54.094;12.112;2022-11-20T12:25:33;4.93;;;3.20;;
5585;SDS011;2815;54.094;12.112;2022-11-20T12:28:09;3.58;;;2.65;;
5585;SDS011;2815;54.094;12.112;2022-11-20T12:31:13;5.60;;;3.03;;
5585;SDS011;2815;54.094;12.112;2022-11-20T12:33:53;4.40;;;3.10;;
5585;SDS011;2815;54.094;12.112;2022-11-20T12:36:27;3.80;;;2.70;;
5585;SDS011;2815;54.094;12.112;2022-11-20T12:39:02;3.80;;;3.00;;
5585;SDS011;2815;54.094;12.112;2022-11-20T12:42:01;3.15;;;2.28;;
5585;SDS011;2815;54.094;12.112;2022-11-20T12:45:16;3.00;;;2.33;;
5585;SDS011;2815;54.094;12.112;2022-11-20T12:48:04;2.90;;;2.33;;
5585;SDS011;2815;54.094;12.112;2022-11-20T12:50:54;4.40;;;2.83;;
5585;SDS011;2815;54.094;12.112;2022-11-20T12:53:42;3.85;;;2.60;;
5585;SDS011;2815;54.094;12.112;2022-11-20T12:56:20;2.60;;;2.20;;
5585;SDS011;2815;54.094;12.112;2022-11-20T12:58:54;5.32;;;3.40;;
5585;SDS011;2815;54.094;12.112;2022-11-20T13:01:32;4.40;;;3.13;;
5585;SDS011;2815;54.094;12.112;2022-11-20T13:04:13;4.63;;;2.88;;
5585;SDS011;2815;54.094;12.112;2022-11-20T13:06:48;5.40;;;3.50;;
5585;SDS011;2815;54.094;12.112;2022-11-20T13:09:17;5.72;;;3.20;;
5585;SDS011;2815;54.094;12.112;2022-11-20T13:11:49;6.03;;;3.40;;
5585;SDS011;2815;54.094;12.112;2022-11-20T13:14:25;7.40;;;3.70;;
5585;SDS011;2815;54.094;12.112;2022-11-20T13:16:58;6.00;;;3.53;;
5585;SDS011;2815;54.094;12.112;2022-11-20T13:19:31;6.57;;;3.60;;
5585;SDS011;2815;54.094;12.112;2022-11-20T13:22:01;7.38;;;4.30;;
5585;SDS011;2815;54.094;12.112;2022-11-20T13:24:29;7.28;;;3.80;;
5585;SDS011;2815;54.094;12.112;2022-11-20T13:27:02;7.13;;;4.28;;
5585;SDS011;2815;54.094;12.112;2022-11-20T13:29:32;8.07;;;4.30;;
5585;SDS011;2815;54.094;12.112;2022-11-20T13:32:02;5.72;;;3.63;;
5585;SDS011;2815;54.094;12.112;2022-11-20T13:34:34;5.35;;;3.53;;
5585;SDS011;2815;54.094;12.112;2022-11-20T13:37:04;6.55;;;3.90;;
5585;SDS011;2815;54.094;12.112;2022-11-20T13:39:33;6.25;;;3.78;;
5585;SDS011;2815;54.094;12.112;2022-11-20T13:42:02;6.35;;;3.50;;
5585;SDS011;2815;54.094;12.112;2022-11-20T13:44:33;5.43;;;3.75;;
5585;SDS011;2815;54.094;12.112;2022-11-20T13:47:04;5.53;;;3.38;;
5585;SDS011;2815;54.094;12.112;2022-11-20T13:49:47;5.93;;;3.75;;
5585;SDS011;2815;54.094;12.112;2022-11-20T13:52:26;6.57;;;3.33;;
5585;SDS011;2815;54.094;12.112;2022-11-20T13:55:05;4.88;;;3.00;;
5585;SDS011;2815;54.094;12.112;2022-11-20T13:57:46;4.30;;;2.92;;
5585;SDS011;2815;54.094;12.112;2022-11-20T14:00:43;5.78;;;2.95;;
5585;SDS011;2815;54.094;12.112;2022-11-20T14:03:15;4.78;;;2.78;;
5585;SDS011;2815;54.094;12.112;2022-11-20T14:06:10;5.82;;;3.20;;
5585;SDS011;2815;54.094;12.112;2022-11-20T14:08:42;4.72;;;3.25;;
5585;SDS011;2815;54.094;12.112;2022-11-20T14:16:43;5.93;;;3.63;;
5585;SDS011;2815;54.094;12.112;2022-11-20T14:19:25;7.70;;;4.03;;
5585;SDS011;2815;54.094;12.112;2022-11-20T14:22:09;6.47;;;4.00;;
5585;SDS011;2815;54.094;12.112;2022-11-20T14:24:43;6.53;;;4.13;;
5585;SDS011;2815;54.094;12.112;2022-11-20T14:27:14;7.95;;;4.20;;
5585;SDS011;2815;54.094;12.112;2022-11-20T14:29:43;6.97;;;4.05;;
5585;SDS011;2815;54.094;12.112;2022-11-20T14:32:14;6.18;;;3.85;;
5585;SDS011;2815;54.094;12.112;2022-11-20T14:34:43;6.82;;;3.97;;
5585;SDS011;2815;54.094;12.112;2022-11-20T14:37:13;6.53;;;4.65;;
5585;SDS011;2815;54.094;12.112;2022-11-20T14:39:49;8.88;;;3.67;;
5585;SDS011;2815;54.094;12.112;2022-11-20T14:42:19;6.85;;;4.50;;
5585;SDS011;2815;54.094;12.112;2022-11-20T14:44:48;7.30;;;4.60;;
5585;SDS011;2815;54.094;12.112;2022-11-20T14:47:18;9.88;;;4.93;;
5585;SDS011;2815;54.094;12.112;2022-11-20T14:49:48;9.55;;;4.90;;
5585;SDS011;2815;54.094;12.112;2022-11-20T14:52:18;11.27;;;5.78;;
5585;SDS011;2815;54.094;12.112;2022-11-20T14:54:47;8.90;;;5.22;;
5585;SDS011;2815;54.094;12.112;2022-11-20T14:57:22;9.02;;;4.80;;
5585;SDS011;2815;54.094;12.112;2022-11-20T14:59:51;10.93;;;6.75;;
5585;SDS011;2815;54.094;12.112;2022-11-20T15:02:19;9.60;;;5.70;;
5585;SDS011;2815;54.094;12.112;2022-11-20T15:04:47;8.75;;;5.43;;
5585;SDS011;2815;54.094;12.112;2022-11-20T15:07:23;9.63;;;5.70;;
5585;SDS011;2815;54.094;12.112;2022-11-20T15:10:04;8.85;;;5.43;;
5585;SDS011;2815;54.094;12.112;2022-11-20T15:12:33;10.30;;;5.95;;
5585;SDS011;2815;54.094;12.112;2022-11-20T15:15:03;10.65;;;5.75;;
5585;SDS011;2815;54.094;12.112;2022-11-20T15:17:32;9.80;;;5.63;;
5585;SDS011;2815;54.094;12.112;2022-11-20T15:20:04;11.15;;;5.85;;
5585;SDS011;2815;54.094;12.112;2022-11-20T15:22:37;9.13;;;5.55;;
5585;SDS011;2815;54.094;12.112;2022-11-20T15:25:12;9.02;;;5.28;;
5585;SDS011;2815;54.094;12.112;2022-11-20T15:27:41;9.35;;;5.38;;
5585;SDS011;2815;54.094;12.112;2022-11-20T15:30:12;11.30;;;6.40;;
5585;SDS011;2815;54.094;12.112;2022-11-20T15:32:41;11.25;;;5.80;;